Time;durP1;ratioP1;P1;durP2;ratioP2;P2;SDS_P1;SDS_P2;PMS_P1;PMS_P2;Temp;Humidity;BMP_temperature;BMP_pressure;BME280_temperature;BME280_humidity;BME280_pressure;Samples;Min_cycle;Max_cycle;Signal;HPM_P1;HPM_P2
2023/11/29 00:01:19;;;;;;;11.40;8.30;;;-0.60;99.90;;;;;;4935426;29;20391;-90
2023/11/29 00:03:45;;;;;;;13.50;7.93;;;-0.70;99.90;;;;;;4932508;29;20178;-91
2023/11/29 00:06:10;;;;;;;11.10;7.77;;;-0.70;99.90;;;;;;4923326;29;20201;-92
2023/11/29 00:08:36;;;;;;;12.07;8.17;;;-0.60;99.90;;;;;;4938096;29;20189;-91
2023/11/29 00:11:09;;;;;;;11.00;7.23;;;-0.60;99.90;;;;;;4921819;29;20193;-91
2023/11/29 00:13:34;;;;;;;10.47;8.13;;;-0.70;99.90;;;;;;4918185;29;20194;-89
2023/11/29 00:16:00;;;;;;;12.60;8.07;;;-0.70;99.90;;;;;;4939414;29;20249;-88
2023/11/29 00:18:26;;;;;;;12.50;7.90;;;-0.70;99.90;;;;;;4937324;29;20192;-88
2023/11/29 00:20:59;;;;;;;11.53;7.53;;;-0.70;99.90;;;;;;4923012;29;20227;-91
2023/11/29 00:23:25;;;;;;;11.77;7.80;;;-0.70;99.90;;;;;;4915173;29;20524;-89
2023/11/29 00:25:50;;;;;;;11.63;7.53;;;-0.70;99.90;;;;;;4940177;29;20237;-89
2023/11/29 00:28:16;;;;;;;12.40;7.90;;;-0.70;99.90;;;;;;4923180;29;20189;-91
2023/11/29 00:30:43;;;;;;;9.77;7.03;;;-0.70;99.90;;;;;;4922526;29;20197;-91
2023/11/29 00:33:08;;;;;;;12.43;7.00;;;-0.70;99.90;;;;;;4922781;29;20196;-90
2023/11/29 00:35:34;;;;;;;10.70;7.53;;;-0.70;99.90;;;;;;4934937;29;20229;-89
2023/11/29 00:38:00;;;;;;;12.60;7.73;;;-0.70;99.90;;;;;;4922921;29;20197;-91
2023/11/29 00:40:29;;;;;;;13.13;8.03;;;-0.70;99.90;;;;;;4922906;29;20250;-91
2023/11/29 00:42:54;;;;;;;10.83;7.70;;;-0.70;99.90;;;;;;4922771;29;20186;-90
2023/11/29 00:45:21;;;;;;;10.63;7.30;;;-0.70;99.90;;;;;;4939795;29;20206;-90
2023/11/29 00:47:47;;;;;;;12.37;7.87;;;-0.70;99.90;;;;;;4936765;29;20190;-88
2023/11/29 00:50:14;;;;;;;11.57;7.70;;;-0.70;99.90;;;;;;4922470;29;20240;-90
2023/11/29 00:52:39;;;;;;;11.53;7.77;;;-0.60;99.90;;;;;;4939386;29;20795;-92
2023/11/29 00:55:06;;;;;;;12.17;7.77;;;-0.70;99.90;;;;;;4914655;29;20197;-90
2023/11/29 00:57:31;;;;;;;10.90;7.77;;;-0.60;99.90;;;;;;4931565;29;20185;-90
2023/11/29 01:00:00;;;;;;;11.63;7.57;;;-0.60;99.90;;;;;;4921824;29;20237;-91
2023/11/29 01:02:26;;;;;;;17.97;10.03;;;-0.60;99.90;;;;;;4914377;29;20193;-84
2023/11/29 01:04:51;;;;;;;10.37;7.73;;;-0.50;99.90;;;;;;4938863;29;20610;-91
2023/11/29 01:07:17;;;;;;;12.90;7.93;;;-0.50;99.90;;;;;;4930608;29;20321;-84
2023/11/29 01:09:44;;;;;;;10.50;7.43;;;-0.50;99.90;;;;;;4922227;29;20201;-88
2023/11/29 01:12:10;;;;;;;12.30;7.50;;;-0.40;99.90;;;;;;4921767;29;20703;-92
2023/11/29 01:14:35;;;;;;;11.33;8.13;;;-0.50;99.90;;;;;;4938422;29;20305;-91
2023/11/29 01:17:01;;;;;;;10.77;7.40;;;-0.60;99.90;;;;;;4916733;29;20527;-94
2023/11/29 01:19:27;;;;;;;13.17;7.40;;;-0.50;99.90;;;;;;4938782;29;20644;-93
2023/11/29 01:21:52;;;;;;;13.33;7.93;;;-0.50;99.90;;;;;;4922013;29;20197;-90
2023/11/29 01:24:18;;;;;;;12.70;8.27;;;-0.50;99.90;;;;;;4922116;29;20617;-90
2023/11/29 01:26:44;;;;;;;10.97;7.87;;;-0.50;99.90;;;;;;4922088;29;20257;-95
2023/11/29 01:29:09;;;;;;;11.73;7.67;;;-0.50;99.90;;;;;;4921721;29;20197;-95
2023/11/29 01:31:39;;;;;;;12.57;8.27;;;-0.40;99.90;;;;;;4938532;29;20186;-94
2023/11/29 01:34:05;;;;;;;10.53;7.17;;;-0.40;99.90;;;;;;4925068;29;20238;-91
2023/11/29 01:36:30;;;;;;;10.27;7.27;;;-0.30;99.90;;;;;;4937427;29;20296;-93
2023/11/29 01:38:56;;;;;;;10.73;7.47;;;-0.20;99.90;;;;;;4937446;29;20216;-91
2023/11/29 01:41:22;;;;;;;10.00;7.83;;;-0.30;99.90;;;;;;4933421;29;20273;-93
2023/11/29 01:43:47;;;;;;;12.33;8.17;;;-0.40;99.90;;;;;;4927407;29;20181;-91
2023/11/29 01:46:13;;;;;;;12.63;8.93;;;-0.40;99.90;;;;;;4936730;29;20189;-92
2023/11/29 01:48:40;;;;;;;12.40;8.77;;;-0.50;99.90;;;;;;4935943;29;20186;-94
2023/11/29 01:51:06;;;;;;;13.43;9.33;;;-0.40;99.90;;;;;;4929487;29;20221;-93
2023/11/29 01:53:32;;;;;;;14.43;9.73;;;-0.50;99.90;;;;;;4937870;29;20213;-94
2023/11/29 01:55:58;;;;;;;13.93;9.10;;;-0.50;99.90;;;;;;4936292;29;20189;-90
2023/11/29 01:58:25;;;;;;;13.57;9.07;;;-0.50;99.90;;;;;;4927605;29;20187;-95
2023/11/29 02:00:52;;;;;;;13.33;8.87;;;-0.60;99.90;;;;;;4927562;29;20258;-93
2023/11/29 02:03:19;;;;;;;13.00;9.20;;;-0.50;99.90;;;;;;4939652;29;20182;-93
2023/11/29 02:05:46;;;;;;;12.47;9.00;;;-0.50;99.90;;;;;;4938737;29;20212;-94
2023/11/29 02:08:12;;;;;;;14.13;8.37;;;-0.50;99.90;;;;;;4938664;29;20525;-93
2023/11/29 02:10:50;;;;;;;12.00;8.93;;;-0.50;99.90;;;;;;4937618;29;20609;-95
2023/11/29 02:13:17;;;;;;;12.17;8.53;;;-0.50;99.90;;;;;;4922179;29;20215;-90
2023/11/29 02:15:42;;;;;;;12.73;9.60;;;-0.50;99.90;;;;;;4937235;29;20720;-94
2023/11/29 02:18:08;;;;;;;14.83;8.83;;;-0.50;99.90;;;;;;4934705;29;20226;-95
2023/11/29 02:20:37;;;;;;;9.97;7.90;;;-0.50;99.90;;;;;;4937645;29;20213;-93
2023/11/29 02:23:30;;;;;;;13.00;8.57;;;-0.50;99.90;;;;;;4938540;29;20248;-95
2023/11/29 02:25:56;;;;;;;11.97;8.00;;;-0.60;99.90;;;;;;4929479;29;20222;-93
2023/11/29 02:28:21;;;;;;;12.87;8.50;;;-0.50;99.90;;;;;;4937420;29;20189;-93
2023/11/29 02:30:48;;;;;;;13.93;8.90;;;-0.60;99.90;;;;;;4930492;29;20202;-90
2023/11/29 02:33:14;;;;;;;12.00;8.60;;;-0.50;99.90;;;;;;4937520;29;20633;-94
2023/11/29 02:35:39;;;;;;;11.20;8.30;;;-0.50;99.90;;;;;;4934283;29;20201;-94
2023/11/29 02:38:05;;;;;;;12.63;8.97;;;-0.50;99.90;;;;;;4923992;29;20276;-93
2023/11/29 02:40:32;;;;;;;12.20;8.37;;;-0.50;99.90;;;;;;4941998;29;20212;-94
2023/11/29 02:42:58;;;;;;;12.87;7.93;;;-0.50;99.90;;;;;;4940135;29;20196;-95
2023/11/29 02:45:26;;;;;;;13.53;8.23;;;-0.50;99.90;;;;;;4936134;29;20186;-93
2023/11/29 02:47:52;;;;;;;12.60;8.67;;;-0.50;99.90;;;;;;4937903;29;20189;-91
2023/11/29 02:50:20;;;;;;;11.53;8.03;;;-0.50;99.90;;;;;;4957053;29;20620;-92
2023/11/29 02:52:48;;;;;;;12.13;8.63;;;-0.50;99.90;;;;;;4939821;29;20220;-94
2023/11/29 02:55:14;;;;;;;11.73;8.23;;;-0.60;99.90;;;;;;4941804;29;20181;-88
2023/11/29 02:57:39;;;;;;;11.07;8.57;;;-0.60;99.90;;;;;;4932301;28;20592;-92
2023/11/29 03:00:06;;;;;;;11.93;8.23;;;-0.60;99.90;;;;;;4935387;29;20205;-95
2023/11/29 03:02:33;;;;;;;12.97;9.17;;;-0.60;99.90;;;;;;4938025;29;20272;-94
2023/11/29 03:04:58;;;;;;;12.20;7.80;;;-0.70;99.90;;;;;;4958761;29;20185;-91
2023/11/29 03:07:24;;;;;;;11.33;8.50;;;-0.70;99.90;;;;;;4956520;29;20245;-92
2023/11/29 03:09:50;;;;;;;11.53;8.50;;;-0.70;99.90;;;;;;4940765;29;20284;-88
2023/11/29 03:12:18;;;;;;;11.40;7.90;;;-0.60;99.90;;;;;;4944102;29;20189;-93
2023/11/29 03:14:43;;;;;;;10.43;7.80;;;-0.60;99.90;;;;;;4943320;29;20200;-96
2023/11/29 03:17:09;;;;;;;12.60;8.40;;;-0.70;99.90;;;;;;4940661;29;20526;-94
2023/11/29 03:19:34;;;;;;;11.37;7.77;;;-0.60;99.90;;;;;;4960158;29;20617;-90
2023/11/29 03:22:09;;;;;;;10.00;8.00;;;-0.60;99.90;;;;;;4958933;29;20197;-94
2023/11/29 03:24:35;;;;;;;11.70;7.77;;;-0.60;99.90;;;;;;4924310;29;20189;-94
2023/11/29 03:27:01;;;;;;;11.67;8.20;;;-0.60;99.90;;;;;;4941254;29;20189;-94
2023/11/29 03:29:26;;;;;;;11.80;8.27;;;-0.60;99.90;;;;;;4938520;29;20206;-95
2023/11/29 03:34:42;;;;;;;10.73;7.40;;;-0.60;99.90;;;;;;4981549;23;20250;-94
2023/11/29 03:37:08;;;;;;;12.47;8.00;;;-0.60;99.90;;;;;;4867926;29;20190;-93
2023/11/29 03:39:34;;;;;;;10.23;7.63;;;-0.60;99.90;;;;;;4867833;29;20226;-94
2023/11/29 03:42:00;;;;;;;12.33;8.10;;;-0.60;99.90;;;;;;4867725;29;20282;-87
2023/11/29 03:44:27;;;;;;;11.10;8.20;;;-0.60;99.90;;;;;;4867849;29;20582;-93
2023/11/29 03:46:54;;;;;;;12.00;7.57;;;-0.60;99.90;;;;;;4884407;29;20188;-92
2023/11/29 03:49:20;;;;;;;13.07;8.30;;;-0.60;99.90;;;;;;4867334;29;20291;-92
2023/11/29 03:51:45;;;;;;;11.57;7.83;;;-0.50;99.90;;;;;;4859968;29;20220;-93
2023/11/29 03:54:16;;;;;;;12.33;8.20;;;-0.50;99.90;;;;;;4867011;29;20188;-93
2023/11/29 03:56:42;;;;;;;14.00;8.83;;;-0.50;99.90;;;;;;4867570;29;20290;-95
2023/11/29 03:59:07;;;;;;;12.87;8.67;;;-0.60;99.90;;;;;;4867451;29;20196;-94
2023/11/29 04:01:33;;;;;;;12.60;9.00;;;-0.60;99.90;;;;;;4884095;29;20216;-92
2023/11/29 04:03:59;;;;;;;14.00;8.73;;;-0.60;99.90;;;;;;4866973;29;20215;-92
2023/11/29 04:06:29;;;;;;;12.50;8.80;;;-0.60;99.90;;;;;;4867553;29;20286;-94
2023/11/29 04:08:55;;;;;;;11.27;7.80;;;-0.50;99.90;;;;;;4867379;29;20192;-95
2023/11/29 04:11:21;;;;;;;12.00;8.27;;;-0.60;99.90;;;;;;4883480;29;20196;-96
2023/11/29 04:13:48;;;;;;;12.77;9.40;;;-0.60;99.90;;;;;;4883726;29;20232;-93
2023/11/29 04:16:31;;;;;;;12.80;8.83;;;-0.50;99.90;;;;;;4867655;29;20203;-94
2023/11/29 04:18:57;;;;;;;14.27;9.27;;;-0.50;99.90;;;;;;4866857;29;20578;-95
2023/11/29 04:21:24;;;;;;;13.57;8.63;;;-0.60;99.90;;;;;;4883457;29;20211;-95
2023/11/29 04:23:51;;;;;;;14.17;9.47;;;-0.60;99.90;;;;;;4866776;29;20678;-91
2023/11/29 04:26:41;;;;;;;12.70;8.63;;;-0.50;99.90;;;;;;4867194;29;20192;-93
2023/11/29 04:29:09;;;;;;;11.30;8.73;;;-0.60;99.90;;;;;;4866881;29;20196;-93
2023/11/29 04:31:36;;;;;;;12.83;8.80;;;-0.50;99.90;;;;;;4867027;29;20230;-94
2023/11/29 04:34:03;;;;;;;12.83;9.20;;;-0.60;99.90;;;;;;4884099;29;20227;-94
2023/11/29 04:36:30;;;;;;;12.23;8.60;;;-0.50;99.90;;;;;;4901430;29;20222;-94
2023/11/29 04:38:55;;;;;;;12.17;8.63;;;-0.60;99.90;;;;;;4900840;29;20622;-94
2023/11/29 04:41:22;;;;;;;13.60;9.03;;;-0.50;99.90;;;;;;4901079;29;20278;-94
2023/11/29 04:43:48;;;;;;;11.43;8.97;;;-0.50;99.90;;;;;;4902003;29;20227;-96
2023/11/29 04:46:17;;;;;;;13.80;9.40;;;-0.50;99.90;;;;;;4900831;29;20191;-92
2023/11/29 04:48:44;;;;;;;14.10;8.87;;;-0.50;99.90;;;;;;4900460;29;20198;-90
2023/11/29 04:51:10;;;;;;;13.57;9.53;;;-0.50;99.90;;;;;;4900454;29;20258;-90
2023/11/29 04:53:38;;;;;;;12.47;8.83;;;-0.50;99.90;;;;;;4896002;29;20235;-95
2023/11/29 04:56:06;;;;;;;13.43;9.17;;;-0.50;99.90;;;;;;4897373;29;20195;-90
2023/11/29 04:58:36;;;;;;;13.27;9.13;;;-0.50;99.90;;;;;;4895171;29;20184;-83
2023/11/29 05:01:02;;;;;;;14.27;9.90;;;-0.50;99.90;;;;;;4891568;29;20216;-87
2023/11/29 05:03:27;;;;;;;13.17;9.40;;;-0.50;99.90;;;;;;4893483;29;20610;-86
2023/11/29 05:05:59;;;;;;;15.73;10.20;;;-0.50;99.90;;;;;;4901383;29;20238;-89
2023/11/29 05:08:25;;;;;;;14.50;9.80;;;-0.50;99.90;;;;;;4895746;29;20188;-91
2023/11/29 05:10:50;;;;;;;12.27;8.80;;;-0.50;99.90;;;;;;4898606;29;20631;-84
2023/11/29 05:13:17;;;;;;;13.67;9.63;;;-0.40;99.90;;;;;;4900031;29;20191;-95
2023/11/29 05:15:47;;;;;;;13.07;9.77;;;-0.50;99.90;;;;;;4900157;29;20187;-95
2023/11/29 05:18:13;;;;;;;13.30;9.47;;;-0.50;99.90;;;;;;4899399;29;20274;-93
2023/11/29 05:20:39;;;;;;;16.33;10.10;;;-0.40;99.90;;;;;;4901138;29;20302;-95
2023/11/29 05:23:05;;;;;;;14.17;9.70;;;-0.40;99.90;;;;;;4891917;29;20188;-92
2023/11/29 05:25:39;;;;;;;12.23;9.20;;;-0.40;99.90;;;;;;4895298;29;20532;-95
2023/11/29 05:28:05;;;;;;;14.07;9.33;;;-0.40;99.90;;;;;;4898540;29;20211;-93
2023/11/29 05:30:31;;;;;;;14.93;9.43;;;-0.40;99.90;;;;;;4899999;29;20194;-89
2023/11/29 05:32:57;;;;;;;13.90;9.47;;;-0.40;99.90;;;;;;4902438;29;20313;-94
2023/11/29 05:35:22;;;;;;;13.77;9.87;;;-0.40;99.90;;;;;;4880096;29;20195;-86
2023/11/29 05:37:48;;;;;;;15.67;9.33;;;-0.40;99.90;;;;;;4916164;29;20210;-87
2023/11/29 05:40:14;;;;;;;16.23;9.50;;;-0.40;99.90;;;;;;4903623;29;20269;-87
2023/11/29 05:42:40;;;;;;;15.07;10.40;;;-0.40;99.90;;;;;;4919158;29;20199;-96
2023/11/29 05:45:10;;;;;;;15.00;9.57;;;-0.40;99.90;;;;;;4900733;29;20233;-88
2023/11/29 05:47:36;;;;;;;14.23;9.23;;;-0.40;99.90;;;;;;4907024;29;20187;-84
2023/11/29 05:50:11;;;;;;;11.53;8.47;;;-0.40;99.90;;;;;;4899600;29;20189;-89
2023/11/29 05:52:37;;;;;;;12.37;8.87;;;-0.40;99.90;;;;;;4898251;29;20190;-86
2023/11/29 05:55:05;;;;;;;14.47;9.67;;;-0.30;99.90;;;;;;4919772;29;20188;-96
2023/11/29 05:57:30;;;;;;;13.40;9.53;;;-0.30;99.90;;;;;;4901538;29;20195;-96
2023/11/29 05:59:58;;;;;;;14.57;9.37;;;-0.30;99.90;;;;;;4901222;29;20274;-96
2023/11/29 06:02:23;;;;;;;15.43;9.20;;;-0.30;99.90;;;;;;4899746;29;20283;-96
2023/11/29 06:04:49;;;;;;;12.93;9.17;;;-0.30;99.90;;;;;;4912677;29;20210;-96
2023/11/29 06:07:22;;;;;;;14.83;9.27;;;-0.30;99.90;;;;;;4912108;29;20187;-96
2023/11/29 06:09:48;;;;;;;13.53;8.80;;;-0.30;99.90;;;;;;4912317;29;20179;-94
2023/11/29 06:12:16;;;;;;;15.07;9.17;;;-0.30;99.90;;;;;;4893829;29;20660;-95
2023/11/29 06:14:42;;;;;;;13.07;8.60;;;-0.30;99.90;;;;;;4919269;29;20250;-95
2023/11/29 06:17:10;;;;;;;12.93;8.33;;;-0.30;99.90;;;;;;4919538;29;20277;-93
2023/11/29 06:19:37;;;;;;;13.77;8.10;;;-0.30;99.90;;;;;;4920084;29;20274;-94
2023/11/29 06:22:03;;;;;;;10.13;7.57;;;-0.20;99.90;;;;;;4919557;29;20187;-91
2023/11/29 06:24:31;;;;;;;12.50;8.07;;;-0.20;99.90;;;;;;4919623;29;20326;-95
2023/11/29 06:27:01;;;;;;;12.43;7.90;;;-0.10;99.90;;;;;;4903013;29;20198;-95
2023/11/29 06:29:27;;;;;;;9.87;6.67;;;-0.20;99.90;;;;;;4905607;29;20182;-95
2023/11/29 06:31:53;;;;;;;13.73;7.07;;;-0.20;99.90;;;;;;4904706;29;20200;-96
2023/11/29 06:34:19;;;;;;;11.70;7.90;;;-0.20;99.90;;;;;;4891479;29;20238;-96
2023/11/29 06:36:47;;;;;;;12.33;7.43;;;-0.20;99.90;;;;;;4917258;29;20560;-96
2023/11/29 06:39:12;;;;;;;13.23;6.97;;;-0.20;99.90;;;;;;4919963;29;20203;-96
2023/11/29 06:41:39;;;;;;;10.47;6.83;;;-0.20;99.90;;;;;;4895505;29;20210;-89
2023/11/29 06:44:05;;;;;;;9.67;6.67;;;-0.20;99.90;;;;;;4907069;29;20183;-96
2023/11/29 06:46:31;;;;;;;11.50;7.37;;;-0.20;99.90;;;;;;4913248;29;20210;-96
2023/11/29 06:49:01;;;;;;;10.07;6.40;;;-0.10;99.90;;;;;;4904822;29;20219;-94
2023/11/29 06:51:28;;;;;;;11.27;6.83;;;-0.10;99.90;;;;;;4915377;29;20250;-94
2023/11/29 06:53:54;;;;;;;10.03;7.20;;;-0.10;99.90;;;;;;4916949;29;20182;-96
2023/11/29 06:56:21;;;;;;;7.83;5.83;;;-0.10;99.90;;;;;;4920586;29;20535;-96
2023/11/29 06:58:47;;;;;;;9.20;6.33;;;-0.10;99.90;;;;;;4915491;29;20189;-96
2023/11/29 07:01:13;;;;;;;9.13;6.57;;;0.00;99.90;;;;;;4903656;29;20212;-96
2023/11/29 07:03:40;;;;;;;12.83;6.83;;;0.00;99.90;;;;;;4907117;29;20172;-96
2023/11/29 07:06:13;;;;;;;9.90;6.73;;;0.00;99.90;;;;;;4909293;29;20194;-96
2023/11/29 07:08:42;;;;;;;10.27;6.43;;;0.00;99.90;;;;;;4900949;29;20618;-96
2023/11/29 07:11:09;;;;;;;8.83;6.93;;;0.00;99.90;;;;;;4927437;29;20641;-96
2023/11/29 07:13:35;;;;;;;12.30;7.37;;;0.00;99.90;;;;;;4911250;29;20197;-96
2023/11/29 07:16:01;;;;;;;10.27;7.37;;;0.00;99.90;;;;;;4922712;29;20214;-94
2023/11/29 07:18:26;;;;;;;10.63;7.17;;;0.00;99.90;;;;;;4930349;29;20529;-96
2023/11/29 07:20:52;;;;;;;11.50;7.30;;;0.00;99.90;;;;;;4913055;29;20233;-96
2023/11/29 07:23:22;;;;;;;12.37;7.47;;;0.00;99.90;;;;;;4930423;29;20171;-91
2023/11/29 07:25:52;;;;;;;13.50;8.10;;;0.10;99.90;;;;;;4913933;29;20191;-96
2023/11/29 07:28:17;;;;;;;9.30;6.87;;;0.10;99.90;;;;;;4902159;29;20205;-96
2023/11/29 07:30:43;;;;;;;10.80;6.93;;;0.00;99.90;;;;;;4914146;29;20187;-94
2023/11/29 07:33:11;;;;;;;9.07;6.27;;;0.10;99.90;;;;;;4969367;23;20587;-96
2023/11/29 07:35:37;;;;;;;10.37;7.77;;;0.10;99.90;;;;;;4948587;29;20210;-95
2023/11/29 07:38:06;;;;;;;11.87;7.13;;;0.20;99.90;;;;;;4930851;29;20187;-96
2023/11/29 07:40:32;;;;;;;11.13;7.97;;;0.20;99.90;;;;;;4942139;29;20727;-96
2023/11/29 07:42:58;;;;;;;10.13;6.67;;;0.30;99.90;;;;;;4941660;29;20189;-94
2023/11/29 07:45:23;;;;;;;11.90;7.83;;;0.30;99.90;;;;;;4952342;29;20189;-96
2023/11/29 07:48:03;;;;;;;9.83;7.07;;;0.40;99.90;;;;;;4948926;29;20193;-94
2023/11/29 07:53:04;;;;;;;11.93;7.97;;;0.50;99.90;;;;;;4919121;29;20657;-88
2023/11/29 07:55:30;;;;;;;9.97;7.17;;;0.50;99.90;;;;;;4902389;29;20189;-88
2023/11/29 07:57:56;;;;;;;10.47;7.53;;;0.50;99.90;;;;;;4903651;29;20179;-88
2023/11/29 08:00:24;;;;;;;9.07;7.03;;;0.40;99.90;;;;;;4903647;29;20218;-87
2023/11/29 08:02:50;;;;;;;11.53;7.23;;;0.40;99.90;;;;;;4922238;29;20201;-88
2023/11/29 08:05:16;;;;;;;11.03;7.07;;;0.40;99.90;;;;;;4922557;29;20274;-87
2023/11/29 08:07:43;;;;;;;8.73;6.80;;;0.40;99.90;;;;;;4922577;29;20182;-88
2023/11/29 08:10:12;;;;;;;10.10;6.70;;;0.40;99.90;;;;;;4922446;29;20626;-88
2023/11/29 08:12:38;;;;;;;8.37;6.37;;;0.40;99.90;;;;;;4922109;29;20685;-88
2023/11/29 08:15:05;;;;;;;9.80;7.00;;;0.50;99.90;;;;;;4922459;29;20178;-89
2023/11/29 08:17:32;;;;;;;9.67;6.70;;;0.50;99.90;;;;;;4922320;29;20176;-94
2023/11/29 08:19:58;;;;;;;9.87;6.77;;;0.60;99.90;;;;;;4922414;29;20224;-95
2023/11/29 08:22:24;;;;;;;10.57;7.50;;;0.60;99.90;;;;;;4922405;29;20202;-94
2023/11/29 08:24:54;;;;;;;8.53;6.57;;;0.70;99.90;;;;;;4922408;29;20167;-94
2023/11/29 08:27:29;;;;;;;9.07;6.83;;;0.70;99.90;;;;;;4922457;29;20276;-90
2023/11/29 08:29:57;;;;;;;10.17;7.47;;;0.80;99.90;;;;;;4922630;29;20661;-88
2023/11/29 08:33:35;;;;;;;9.47;6.87;;;0.80;99.90;;;;;;4939088;29;20210;-87
2023/11/29 08:49:12;;;;;;;9.87;7.30;;;0.90;99.90;;;;;;5112399;23;20237;-94
2023/11/29 08:51:37;;;;;;;9.43;7.27;;;0.80;99.90;;;;;;4925133;29;20241;-94
2023/11/29 08:54:03;;;;;;;10.53;8.17;;;0.80;99.90;;;;;;4932724;29;20190;-96
2023/11/29 08:56:29;;;;;;;12.97;8.13;;;0.70;99.90;;;;;;4931868;29;20200;-94
2023/11/29 08:58:56;;;;;;;10.13;7.57;;;0.70;99.90;;;;;;4944771;29;20189;-94
2023/11/29 09:01:21;;;;;;;10.63;7.87;;;0.80;99.90;;;;;;4948385;29;20248;-94
2023/11/29 09:03:48;;;;;;;10.93;7.63;;;0.90;99.90;;;;;;4919023;29;20187;-95
2023/11/29 09:06:16;;;;;;;10.63;7.50;;;0.90;99.90;;;;;;4919437;29;20201;-96
2023/11/29 09:08:44;;;;;;;10.30;7.57;;;0.90;99.90;;;;;;4920878;29;20190;-95
2023/11/29 09:11:09;;;;;;;9.37;7.40;;;0.90;99.90;;;;;;4927371;29;20182;-95
2023/11/29 09:13:35;;;;;;;11.00;7.53;;;0.90;99.90;;;;;;4924731;29;20194;-94
2023/11/29 09:16:02;;;;;;;10.00;6.93;;;1.00;99.90;;;;;;4937980;29;20233;-93
2023/11/29 09:18:29;;;;;;;13.20;7.20;;;1.00;99.90;;;;;;4930274;29;20268;-92
2023/11/29 09:20:54;;;;;;;11.30;7.67;;;1.10;99.90;;;;;;4924371;29;20214;-96
2023/11/29 09:23:20;;;;;;;8.63;6.80;;;1.10;99.90;;;;;;4922800;29;20493;-94
2023/11/29 09:25:47;;;;;;;11.27;6.80;;;1.10;99.90;;;;;;4904645;29;20262;-87
2023/11/29 09:28:15;;;;;;;9.40;6.87;;;1.10;99.90;;;;;;4922915;29;20187;-91
2023/11/29 09:30:42;;;;;;;10.80;6.50;;;1.10;99.90;;;;;;4923444;29;20572;-88
2023/11/29 09:33:08;;;;;;;8.97;6.53;;;1.20;99.90;;;;;;4941319;29;20185;-86
2023/11/29 09:35:33;;;;;;;8.90;6.07;;;1.20;99.90;;;;;;4922290;29;20250;-87
2023/11/29 09:37:59;;;;;;;9.73;6.07;;;1.40;99.90;;;;;;4939576;29;20232;-90
2023/11/29 09:40:25;;;;;;;10.10;6.27;;;1.40;99.90;;;;;;4922696;29;20541;-90
2023/11/29 09:42:52;;;;;;;6.90;5.80;;;1.40;99.90;;;;;;4920031;29;20213;-88
2023/11/29 09:45:28;;;;;;;8.70;6.20;;;1.40;99.90;;;;;;4934834;29;20233;-94
2023/11/29 09:47:57;;;;;;;7.50;5.93;;;1.30;99.90;;;;;;4909526;29;20259;-85
2023/11/29 09:50:25;;;;;;;9.20;6.63;;;1.20;99.90;;;;;;4902372;29;20182;-84
2023/11/29 09:52:50;;;;;;;8.10;5.63;;;1.20;99.90;;;;;;4911365;29;20262;-89
2023/11/29 09:55:16;;;;;;;8.70;5.93;;;1.20;99.90;;;;;;4905770;29;20210;-84
2023/11/29 09:57:42;;;;;;;7.07;6.00;;;1.20;99.90;;;;;;4913054;29;20186;-87
2023/11/29 10:00:12;;;;;;;10.13;6.20;;;1.20;99.90;;;;;;4909997;29;20658;-91
2023/11/29 10:02:41;;;;;;;9.23;6.67;;;1.20;99.90;;;;;;4908976;29;20187;-90
2023/11/29 10:05:08;;;;;;;8.47;6.17;;;1.30;99.90;;;;;;4912191;29;20626;-96
2023/11/29 10:07:34;;;;;;;9.23;6.40;;;1.30;99.90;;;;;;4919498;29;20186;-93
2023/11/29 10:10:01;;;;;;;7.83;5.77;;;1.20;99.90;;;;;;4902352;29;20199;-89
2023/11/29 10:12:27;;;;;;;7.73;6.23;;;1.30;99.90;;;;;;4889826;29;20334;-91
2023/11/29 10:14:54;;;;;;;7.13;5.83;;;1.30;99.90;;;;;;4901856;29;20269;-92
2023/11/29 10:17:20;;;;;;;7.70;5.87;;;1.30;99.90;;;;;;4914179;29;20187;-91
2023/11/29 10:19:54;;;;;;;11.13;6.63;;;1.30;99.90;;;;;;4891130;29;20591;-93
2023/11/29 10:22:19;;;;;;;9.07;5.70;;;1.30;99.90;;;;;;4889270;29;20195;-91
2023/11/29 10:24:45;;;;;;;9.07;6.20;;;1.40;99.90;;;;;;4888163;29;20188;-93
2023/11/29 10:27:11;;;;;;;9.47;6.23;;;1.40;99.90;;;;;;4913897;29;20234;-93
2023/11/29 10:29:39;;;;;;;9.63;5.93;;;1.40;99.90;;;;;;4879284;29;20192;-93
2023/11/29 10:32:08;;;;;;;8.63;6.43;;;1.40;99.90;;;;;;4898295;29;20231;-93
2023/11/29 10:34:34;;;;;;;9.63;6.40;;;1.40;99.90;;;;;;4888281;29;20184;-91
2023/11/29 10:37:01;;;;;;;9.23;6.57;;;1.40;99.90;;;;;;4912246;29;20242;-89
2023/11/29 10:39:31;;;;;;;7.70;6.07;;;1.40;99.90;;;;;;4889723;29;20231;-91
2023/11/29 10:41:58;;;;;;;7.53;5.83;;;1.50;99.90;;;;;;4880367;29;20225;-92
2023/11/29 10:44:44;;;;;;;10.07;6.90;;;1.50;99.90;;;;;;4892113;29;20191;-92
2023/11/29 10:47:19;;;;;;;8.30;6.20;;;1.50;99.90;;;;;;4893023;29;20179;-89
2023/11/29 10:49:58;;;;;;;9.53;6.33;;;1.60;99.90;;;;;;4893514;29;20693;-92
2023/11/29 10:52:25;;;;;;;9.33;6.60;;;1.50;99.90;;;;;;4902038;29;20217;-91
2023/11/29 10:54:52;;;;;;;8.40;6.60;;;1.50;99.90;;;;;;4901770;29;20195;-90
2023/11/29 10:57:54;;;;;;;10.07;7.10;;;1.50;99.90;;;;;;4898704;29;20198;-93
2023/11/29 11:00:25;;;;;;;9.97;7.67;;;1.40;99.90;;;;;;4891138;29;21424;-94
2023/11/29 11:02:51;;;;;;;10.20;7.70;;;1.30;99.90;;;;;;4899862;29;20226;-87
2023/11/29 11:05:21;;;;;;;11.00;7.93;;;1.30;99.90;;;;;;4907260;29;20183;-91
2023/11/29 11:07:48;;;;;;;12.30;8.17;;;1.30;99.90;;;;;;4898630;29;20207;-89
2023/11/29 11:10:25;;;;;;;11.90;8.33;;;1.30;99.90;;;;;;4907965;29;20224;-91
2023/11/29 11:12:52;;;;;;;14.17;7.73;;;1.20;99.90;;;;;;4899106;29;20281;-89
2023/11/29 11:15:25;;;;;;;13.07;8.07;;;1.30;99.90;;;;;;4898850;29;20191;-91
2023/11/29 11:18:07;;;;;;;10.20;7.63;;;1.30;99.90;;;;;;4907568;29;20527;-88
2023/11/29 11:20:50;;;;;;;12.43;7.50;;;1.30;99.90;;;;;;4901031;29;20692;-93
2023/11/29 11:23:21;;;;;;;12.33;7.73;;;1.20;99.90;;;;;;4902856;29;20186;-91
2023/11/29 11:25:47;;;;;;;11.13;7.40;;;1.20;99.90;;;;;;4903375;29;20211;-92
2023/11/29 11:28:34;;;;;;;14.37;8.07;;;1.20;99.90;;;;;;4901511;29;20191;-91
2023/11/29 11:31:12;;;;;;;11.07;8.07;;;1.20;99.90;;;;;;4911096;29;20194;-94
2023/11/29 11:33:53;;;;;;;13.50;8.03;;;1.30;99.90;;;;;;4916915;29;20193;-92
2023/11/29 11:36:26;;;;;;;11.73;8.80;;;1.40;99.90;;;;;;4905013;29;20226;-91
2023/11/29 11:38:52;;;;;;;11.60;7.97;;;1.40;99.90;;;;;;4902260;29;20202;-90
2023/11/29 11:41:18;;;;;;;11.70;8.30;;;1.40;99.90;;;;;;4914030;29;20218;-91
2023/11/29 11:43:43;;;;;;;10.17;7.90;;;1.40;99.90;;;;;;4905279;29;20269;-95
2023/11/29 11:46:10;;;;;;;11.23;8.67;;;1.30;99.90;;;;;;4903129;29;20198;-94
2023/11/29 11:48:36;;;;;;;13.33;8.53;;;1.20;99.90;;;;;;4909342;29;20684;-95
2023/11/29 11:51:02;;;;;;;13.07;8.17;;;1.20;99.90;;;;;;4929357;29;20614;-95
2023/11/29 11:53:42;;;;;;;13.03;8.03;;;1.20;99.90;;;;;;4930406;29;20189;-95
2023/11/29 11:56:21;;;;;;;11.13;8.03;;;1.20;99.90;;;;;;4933342;29;20221;-94
2023/11/29 11:58:47;;;;;;;12.00;8.53;;;1.30;99.90;;;;;;4933421;29;20203;-96
2023/11/29 12:01:14;;;;;;;12.93;8.57;;;1.30;99.90;;;;;;4930353;29;20214;-94
2023/11/29 12:03:39;;;;;;;10.50;8.43;;;1.30;99.90;;;;;;4937118;29;20189;-96
2023/11/29 12:06:06;;;;;;;11.07;7.87;;;1.40;99.90;;;;;;4930473;29;20190;-95
2023/11/29 12:08:33;;;;;;;12.03;8.00;;;1.40;99.90;;;;;;4936683;29;20248;-96
2023/11/29 12:10:59;;;;;;;12.23;8.23;;;1.30;99.90;;;;;;4940481;29;20276;-94
2023/11/29 12:13:25;;;;;;;10.97;8.20;;;1.30;99.90;;;;;;4927352;29;20605;-92
2023/11/29 12:15:51;;;;;;;11.10;7.93;;;1.30;99.90;;;;;;4912848;29;20196;-86
2023/11/29 12:18:17;;;;;;;11.40;8.17;;;1.30;99.90;;;;;;4928869;29;20194;-91
2023/11/29 12:20:43;;;;;;;10.77;8.50;;;1.40;99.90;;;;;;4936164;29;20210;-92
2023/11/29 12:23:11;;;;;;;12.33;8.80;;;1.30;99.90;;;;;;4922485;29;20203;-93
2023/11/29 12:25:39;;;;;;;11.27;8.43;;;1.30;99.90;;;;;;4920428;29;20199;-92
2023/11/29 12:28:05;;;;;;;10.60;8.17;;;1.30;99.90;;;;;;4918949;29;20739;-89
2023/11/29 12:30:31;;;;;;;11.57;8.10;;;1.30;99.90;;;;;;4921895;29;20194;-90
2023/11/29 12:32:56;;;;;;;11.50;7.67;;;1.30;99.90;;;;;;4920567;29;20254;-92
2023/11/29 12:35:24;;;;;;;10.90;8.17;;;1.20;99.90;;;;;;4934983;29;20270;-91
2023/11/29 12:37:50;;;;;;;11.47;7.80;;;1.30;99.90;;;;;;4927963;29;20189;-91
2023/11/29 12:40:24;;;;;;;11.97;8.30;;;1.20;99.90;;;;;;4931081;29;20213;-91
2023/11/29 12:42:50;;;;;;;10.87;8.00;;;1.20;99.90;;;;;;4931045;29;20222;-92
2023/11/29 12:45:16;;;;;;;11.40;8.53;;;1.20;99.90;;;;;;4935269;29;20225;-90
2023/11/29 12:47:42;;;;;;;11.27;8.20;;;1.20;99.90;;;;;;4921268;29;20194;-90
2023/11/29 12:50:11;;;;;;;12.63;8.47;;;1.20;99.90;;;;;;4922683;29;20721;-90
2023/11/29 12:52:37;;;;;;;12.10;8.37;;;1.30;99.90;;;;;;4945675;29;20205;-89
2023/11/29 12:55:03;;;;;;;10.67;8.47;;;1.30;99.90;;;;;;4949293;29;20182;-92
2023/11/29 12:57:29;;;;;;;16.83;8.80;;;1.30;99.90;;;;;;4922434;29;20186;-89
2023/11/29 12:59:57;;;;;;;12.33;8.70;;;1.30;99.90;;;;;;4939291;29;20274;-90
2023/11/29 13:02:22;;;;;;;12.37;8.87;;;1.20;99.90;;;;;;4922346;29;20221;-88
2023/11/29 13:04:48;;;;;;;11.70;9.10;;;1.20;99.90;;;;;;4922212;29;20196;-89